createdAt,value
2017-07-14T00:01:40.074Z,58.80
2017-07-14T00:04:06.553Z,59.00
2017-07-14T00:06:32.979Z,59.00
2017-07-14T00:08:59.384Z,58.90
2017-07-14T00:11:26.515Z,58.10
2017-07-14T00:13:52.938Z,58.20
2017-07-14T00:16:19.361Z,58.10
2017-07-14T00:18:46.553Z,57.90
2017-07-14T00:21:13.753Z,58.20
2017-07-14T00:23:40.164Z,58.10
2017-07-14T00:26:06.553Z,58.30
2017-07-14T00:28:32.933Z,58.40
2017-07-14T00:30:59.357Z,58.30
2017-07-14T00:33:25.780Z,58.40
2017-07-14T00:35:52.174Z,58.40
2017-07-14T00:38:18.597Z,58.50
2017-07-14T00:40:45.014Z,59.20
2017-07-14T00:43:11.444Z,59.70
2017-07-14T00:45:37.864Z,60.00
2017-07-14T00:48:04.267Z,60.10
2017-07-14T00:50:30.680Z,60.20
2017-07-14T00:52:57.825Z,60.30
2017-07-14T00:55:24.965Z,60.60
2017-07-14T00:57:51.448Z,60.00
2017-07-14T01:00:17.847Z,59.70
2017-07-14T01:02:45.148Z,59.90
2017-07-14T01:05:11.600Z,59.90
2017-07-14T01:07:38.137Z,59.60
2017-07-14T01:10:05.346Z,59.60
2017-07-14T01:12:31.776Z,59.60
2017-07-14T01:14:58.150Z,59.20
2017-07-14T01:17:24.554Z,59.40
2017-07-14T01:19:51.024Z,59.50
2017-07-14T01:22:17.496Z,59.90
2017-07-14T01:24:44.629Z,59.10
2017-07-14T01:27:11.776Z,59.30
2017-07-14T01:29:38.957Z,58.60
2017-07-14T01:32:05.383Z,58.60
2017-07-14T01:34:32.538Z,59.20
2017-07-14T01:36:58.942Z,59.20
2017-07-14T01:39:26.159Z,59.90
2017-07-14T01:41:52.621Z,59.70
2017-07-14T01:44:19.065Z,59.70
2017-07-14T01:46:46.268Z,60.80
2017-07-14T01:49:12.721Z,60.10
2017-07-14T01:51:39.212Z,60.30
2017-07-14T01:54:05.685Z,60.20
2017-07-14T01:56:32.140Z,60.20
2017-07-14T01:58:58.645Z,59.60
2017-07-14T02:01:25.109Z,59.50
2017-07-14T02:03:51.541Z,58.80
2017-07-14T02:06:17.977Z,58.20
2017-07-14T02:08:44.490Z,58.60
2017-07-14T02:11:10.934Z,58.50
2017-07-14T02:13:37.467Z,58.70
2017-07-14T02:16:03.913Z,58.70
2017-07-14T02:18:30.369Z,58.50
2017-07-14T02:20:57.550Z,59.00
2017-07-14T02:23:24.003Z,59.00
2017-07-14T02:25:50.465Z,59.10
2017-07-14T02:28:17.682Z,59.70
2017-07-14T02:30:44.150Z,59.70
2017-07-14T02:33:10.592Z,60.00
2017-07-14T02:35:37.805Z,60.80
2017-07-14T02:38:04.256Z,60.10
2017-07-14T02:40:30.729Z,59.90
2017-07-14T02:42:57.178Z,59.60
2017-07-14T02:45:23.633Z,59.40
2017-07-14T02:47:50.083Z,59.40
2017-07-14T02:50:16.565Z,59.60
2017-07-14T02:52:43.028Z,59.60
2017-07-14T02:55:09.494Z,59.00
2017-07-14T02:57:35.929Z,59.10
2017-07-14T03:00:02.434Z,59.00
2017-07-14T03:02:28.932Z,59.20
2017-07-14T03:04:55.373Z,59.00
2017-07-14T03:07:21.904Z,59.10
2017-07-14T03:09:48.368Z,59.40
2017-07-14T03:12:14.857Z,59.60
2017-07-14T03:14:42.119Z,59.80
2017-07-14T03:17:08.616Z,59.80
2017-07-14T03:19:35.066Z,60.30
2017-07-14T03:22:02.344Z,61.60
2017-07-14T03:24:28.810Z,60.90
2017-07-14T03:26:55.261Z,61.50
2017-07-14T03:29:21.752Z,61.10
2017-07-14T03:31:48.201Z,60.60
2017-07-14T03:34:14.629Z,60.30
2017-07-14T03:36:41.179Z,60.60
2017-07-14T03:39:07.658Z,61.20
2017-07-14T03:41:34.885Z,61.50
2017-07-14T03:44:01.346Z,61.50
2017-07-14T03:46:28.623Z,61.10
2017-07-14T03:48:55.085Z,61.00
2017-07-14T03:51:21.517Z,60.90
2017-07-14T03:53:48.008Z,60.40
2017-07-14T03:56:14.460Z,60.40
2017-07-14T03:58:40.911Z,60.70
2017-07-14T04:01:07.364Z,60.90
2017-07-14T04:03:33.801Z,60.80
2017-07-14T04:06:00.224Z,61.10
2017-07-14T04:08:26.721Z,61.10
2017-07-14T04:10:53.128Z,61.10
2017-07-14T04:13:20.312Z,61.10
2017-07-14T04:15:46.773Z,61.00
2017-07-14T04:18:13.167Z,60.70
2017-07-14T04:20:39.568Z,60.90
2017-07-14T04:23:05.959Z,60.90
2017-07-14T04:25:32.377Z,61.50
2017-07-14T04:27:59.043Z,61.60
2017-07-14T04:30:25.466Z,62.20
2017-07-14T04:32:51.881Z,62.70
2017-07-14T04:35:18.279Z,63.10
2017-07-14T04:37:44.690Z,63.80
2017-07-14T04:40:11.112Z,63.70
2017-07-14T04:42:37.527Z,63.30
2017-07-14T04:45:03.990Z,63.40
2017-07-14T04:47:30.389Z,63.70
2017-07-14T04:49:56.800Z,63.70
2017-07-14T04:52:23.196Z,63.50
2017-07-14T04:54:49.604Z,63.80
2017-07-14T04:57:15.997Z,63.90
2017-07-14T04:59:42.398Z,63.60
2017-07-14T05:02:09.595Z,63.70
2017-07-14T05:04:35.984Z,63.60
2017-07-14T05:07:03.169Z,63.10
2017-07-14T05:09:29.588Z,63.10
2017-07-14T05:11:55.990Z,63.40
2017-07-14T05:14:23.198Z,62.40
2017-07-14T05:16:49.734Z,62.40
2017-07-14T05:19:16.149Z,61.90
2017-07-14T05:21:42.593Z,61.00
2017-07-14T05:24:09.006Z,60.30
2017-07-14T05:26:35.435Z,60.40
2017-07-14T05:29:01.839Z,60.30
2017-07-14T05:31:28.984Z,60.70
2017-07-14T05:33:55.396Z,60.60
2017-07-14T05:36:21.846Z,59.60
2017-07-14T05:38:48.253Z,60.10
2017-07-14T05:41:14.748Z,60.30
2017-07-14T05:43:41.192Z,60.10
2017-07-14T05:46:07.624Z,60.30
2017-07-14T05:48:34.004Z,60.00
2017-07-14T05:51:00.445Z,59.20
2017-07-14T05:53:26.909Z,58.20
2017-07-14T05:55:53.296Z,58.60
2017-07-14T05:58:19.701Z,58.90
2017-07-14T06:00:46.101Z,56.90
2017-07-14T06:03:13.273Z,54.40
2017-07-14T06:05:39.750Z,54.40
2017-07-14T06:08:06.156Z,54.50
2017-07-14T06:10:32.578Z,53.50
2017-07-14T06:12:58.993Z,53.60
2017-07-14T06:15:25.466Z,51.30
2017-07-14T06:17:51.873Z,49.80
2017-07-14T06:20:18.308Z,49.50
2017-07-14T06:22:44.713Z,49.20
2017-07-14T06:25:11.856Z,47.70
2017-07-14T06:27:38.384Z,47.70
2017-07-14T06:30:05.565Z,47.90
2017-07-14T06:32:31.942Z,47.90
2017-07-14T06:34:58.347Z,47.60
2017-07-14T06:37:24.763Z,47.40
2017-07-14T06:39:51.198Z,47.60
2017-07-14T06:42:17.602Z,46.60
2017-07-14T06:44:44.746Z,46.30
2017-07-14T06:47:11.908Z,46.60
2017-07-14T06:49:38.312Z,46.60
2017-07-14T06:52:04.717Z,45.80
2017-07-14T06:54:31.186Z,45.80
2017-07-14T06:56:57.586Z,46.20
2017-07-14T06:59:23.988Z,43.90
2017-07-14T07:01:50.418Z,43.60
2017-07-14T07:04:16.837Z,43.50
2017-07-14T07:06:43.244Z,44.70
2017-07-14T07:09:09.668Z,44.50
2017-07-14T07:11:36.111Z,43.00
2017-07-14T07:14:02.550Z,43.50
2017-07-14T07:16:29.022Z,43.50
2017-07-14T07:18:55.498Z,43.60
2017-07-14T07:21:21.892Z,43.00
2017-07-14T07:23:48.325Z,43.20
2017-07-14T07:26:14.722Z,43.40
2017-07-14T07:28:41.128Z,42.70
2017-07-14T07:31:07.538Z,41.90
2017-07-14T07:33:34.053Z,41.80
2017-07-14T07:36:00.438Z,41.80
2017-07-14T07:38:26.854Z,41.60
2017-07-14T07:40:53.267Z,41.20
2017-07-14T07:43:19.683Z,41.10
2017-07-14T07:45:46.076Z,40.30
2017-07-14T07:48:18.863Z,41.30
2017-07-14T07:50:45.259Z,40.70
2017-07-14T07:53:11.674Z,40.20
2017-07-14T07:55:38.126Z,39.20
2017-07-14T07:58:04.553Z,39.50
2017-07-14T08:00:31.421Z,39.50
2017-07-14T08:03:03.949Z,39.60
2017-07-14T08:05:30.365Z,39.80
2017-07-14T08:07:57.520Z,38.60
2017-07-14T08:10:23.964Z,38.60
2017-07-14T08:12:50.364Z,38.90
2017-07-14T08:15:18.002Z,39.10
2017-07-14T08:17:44.416Z,38.70
2017-07-14T08:20:10.856Z,39.60
2017-07-14T08:22:37.252Z,39.10
2017-07-14T08:25:03.668Z,39.30
2017-07-14T08:27:30.820Z,39.00
2017-07-14T08:29:58.025Z,39.80
2017-07-14T08:32:24.419Z,39.40
2017-07-14T08:34:50.852Z,39.80
2017-07-14T08:37:17.263Z,39.10
2017-07-14T08:39:44.468Z,38.80
2017-07-14T08:42:10.872Z,38.50
2017-07-14T08:44:37.280Z,37.90
2017-07-14T08:47:04.442Z,37.90
2017-07-14T08:49:31.615Z,37.30
2017-07-14T08:51:58.049Z,37.30
2017-07-14T08:54:24.481Z,38.40
2017-07-14T08:56:50.894Z,37.70
2017-07-14T08:59:17.370Z,38.10
2017-07-14T09:01:43.813Z,37.40
2017-07-14T09:04:10.223Z,37.40
2017-07-14T09:06:36.608Z,37.50
2017-07-14T09:09:03.069Z,35.30
2017-07-14T09:11:29.474Z,36.30
2017-07-14T09:13:55.946Z,36.00
2017-07-14T09:16:22.356Z,35.70
2017-07-14T09:18:49.527Z,36.50
2017-07-14T09:21:15.960Z,36.50
2017-07-14T09:23:42.364Z,36.20
2017-07-14T09:26:09.528Z,35.80
2017-07-14T09:28:36.662Z,35.80
2017-07-14T09:31:03.857Z,35.20
2017-07-14T09:33:30.275Z,35.10
2017-07-14T09:35:56.726Z,35.70
2017-07-14T09:38:23.102Z,35.90
2017-07-14T09:40:49.560Z,34.40
2017-07-14T09:43:16.007Z,34.80
2017-07-14T09:45:42.408Z,34.40
2017-07-14T09:48:10.277Z,34.30
2017-07-14T09:50:37.417Z,34.20
2017-07-14T09:53:03.828Z,34.20
2017-07-14T09:55:30.233Z,35.00
2017-07-14T09:57:56.617Z,34.90
2017-07-14T10:00:23.048Z,35.10
2017-07-14T10:02:49.445Z,34.00
2017-07-14T10:05:15.917Z,33.00
2017-07-14T10:07:42.319Z,32.20
2017-07-14T10:10:08.715Z,33.40
2017-07-14T10:12:35.088Z,32.80
2017-07-14T10:15:01.479Z,32.60
2017-07-14T10:17:27.885Z,32.50
2017-07-14T10:19:55.089Z,32.60
2017-07-14T10:22:21.501Z,32.60
2017-07-14T10:24:47.902Z,31.30
2017-07-14T10:27:15.052Z,30.70
2017-07-14T10:29:41.436Z,30.70
2017-07-14T10:32:07.891Z,30.80
2017-07-14T10:34:34.344Z,30.30
2017-07-14T10:37:01.472Z,30.00
2017-07-14T10:39:27.898Z,30.00
2017-07-14T10:41:54.293Z,30.50
2017-07-14T10:44:20.751Z,29.90
2017-07-14T10:46:47.176Z,30.00
2017-07-14T10:49:14.162Z,30.00
2017-07-14T10:55:10.808Z,30.00
2017-07-14T10:57:37.221Z,30.10
2017-07-14T11:00:03.644Z,29.70
2017-07-14T11:02:30.035Z,31.40
2017-07-14T11:04:57.249Z,30.90
2017-07-14T11:07:23.759Z,30.90
2017-07-14T11:09:51.145Z,31.40
2017-07-14T11:12:17.548Z,32.60
2017-07-14T11:14:43.935Z,30.80
2017-07-14T11:17:10.368Z,31.40
2017-07-14T11:19:36.755Z,30.90
2017-07-14T11:22:03.233Z,31.40
2017-07-14T11:24:30.395Z,30.80
2017-07-14T11:26:57.561Z,31.30
2017-07-14T11:29:23.961Z,31.30
2017-07-14T11:31:50.391Z,31.40
2017-07-14T11:34:16.817Z,31.10
2017-07-14T11:36:43.272Z,31.00
2017-07-14T11:39:09.684Z,31.60
2017-07-14T11:41:36.118Z,31.00
2017-07-14T11:44:02.540Z,31.60
2017-07-14T11:46:28.948Z,31.50
2017-07-14T11:48:55.320Z,31.30
2017-07-14T11:51:21.730Z,31.00
2017-07-14T11:53:48.137Z,31.70
2017-07-14T11:56:14.556Z,32.30
2017-07-14T11:58:40.961Z,31.90
2017-07-14T12:01:07.387Z,32.60
2017-07-14T12:03:33.789Z,32.00
2017-07-14T12:06:00.261Z,31.90
2017-07-14T12:08:26.692Z,32.50
2017-07-14T12:10:53.143Z,32.40
2017-07-14T12:13:20.332Z,32.10
2017-07-14T12:15:46.760Z,32.10
2017-07-14T12:18:13.156Z,32.40
2017-07-14T12:20:40.372Z,31.00
2017-07-14T12:23:06.798Z,30.90
2017-07-14T12:25:33.205Z,30.80
2017-07-14T12:27:59.598Z,32.00
2017-07-14T12:30:26.027Z,32.90
2017-07-14T12:32:52.450Z,32.20
2017-07-14T12:35:18.839Z,31.90
2017-07-14T12:37:45.241Z,32.30
2017-07-14T12:40:12.385Z,34.00
2017-07-14T12:42:39.603Z,34.00
2017-07-14T12:45:06.005Z,33.90
2017-07-14T12:47:32.425Z,34.00
2017-07-14T12:49:58.838Z,33.60
2017-07-14T12:52:25.992Z,32.50
2017-07-14T12:54:53.149Z,32.80
2017-07-14T12:57:19.555Z,32.70
2017-07-14T12:59:45.929Z,33.00
2017-07-14T13:02:12.328Z,33.30
2017-07-14T13:04:38.722Z,32.90
2017-07-14T13:07:05.153Z,32.90
2017-07-14T13:09:31.595Z,33.00
2017-07-14T13:11:58.074Z,33.80
2017-07-14T13:14:24.492Z,33.90
2017-07-14T13:16:57.081Z,35.10
2017-07-14T13:19:24.261Z,37.00
2017-07-14T13:21:50.640Z,36.30
2017-07-14T13:24:17.033Z,35.80
2017-07-14T13:26:43.432Z,38.30
2017-07-14T13:29:10.590Z,38.70
2017-07-14T13:31:37.729Z,38.60
2017-07-14T13:34:04.882Z,39.40
2017-07-14T13:36:32.054Z,38.90
2017-07-14T13:38:58.490Z,38.80
2017-07-14T13:41:24.909Z,39.00
2017-07-14T13:43:51.326Z,39.30
2017-07-14T13:46:18.490Z,38.60
2017-07-14T13:48:45.817Z,38.60
2017-07-14T13:51:12.966Z,38.30
2017-07-14T13:53:39.581Z,38.30
2017-07-14T13:56:06.026Z,38.90
2017-07-14T13:58:32.430Z,38.80
2017-07-14T14:00:58.835Z,39.00
2017-07-14T14:03:25.260Z,37.80
2017-07-14T14:05:52.422Z,37.60
2017-07-14T14:08:18.837Z,37.50
2017-07-14T14:10:45.982Z,38.90
2017-07-14T14:13:13.132Z,39.10
2017-07-14T14:15:40.274Z,38.40
2017-07-14T14:18:06.678Z,38.40
2017-07-14T14:20:33.076Z,37.80
2017-07-14T14:22:59.467Z,37.80
2017-07-14T14:25:25.872Z,38.20
2017-07-14T14:27:52.544Z,37.30
2017-07-14T14:30:19.687Z,36.80
2017-07-14T14:32:46.070Z,36.80
2017-07-14T14:35:12.487Z,37.70
2017-07-14T14:37:38.877Z,37.90
2017-07-14T14:40:05.281Z,37.70
2017-07-14T14:42:31.667Z,37.30
2017-07-14T14:44:58.815Z,35.30
2017-07-14T14:47:25.975Z,36.30
2017-07-14T14:49:52.369Z,36.30
2017-07-14T14:52:18.768Z,34.80
2017-07-14T14:54:45.222Z,34.40
2017-07-14T14:57:11.633Z,33.70
2017-07-14T14:59:38.053Z,33.60
2017-07-14T15:02:04.516Z,32.70
2017-07-14T15:04:30.921Z,32.90
2017-07-14T15:06:57.331Z,33.50
2017-07-14T15:09:24.506Z,33.50
2017-07-14T15:11:50.928Z,33.40
2017-07-14T15:14:17.312Z,33.20
2017-07-14T15:16:43.702Z,33.10
2017-07-14T15:19:10.109Z,33.40
2017-07-14T15:21:37.323Z,35.20
2017-07-14T15:24:04.493Z,34.90
2017-07-14T15:26:30.874Z,34.90
2017-07-14T15:28:57.320Z,33.80
2017-07-14T15:31:23.965Z,33.50
2017-07-14T16:17:31.448Z,36.90
2017-07-14T16:19:57.881Z,36.70
2017-07-14T16:22:24.296Z,35.90
2017-07-14T16:24:50.706Z,34.30
2017-07-14T16:27:17.101Z,34.50
2017-07-14T16:29:43.516Z,34.20
2017-07-14T16:32:09.919Z,34.30
2017-07-14T16:34:36.315Z,34.00
2017-07-14T16:37:02.713Z,33.80
2017-07-14T16:39:29.255Z,33.40
2017-07-14T16:41:55.666Z,32.80
2017-07-14T16:44:22.074Z,32.70
2017-07-14T16:46:48.498Z,31.70
2017-07-14T16:49:14.918Z,31.30
2017-07-14T16:51:42.072Z,32.00
2017-07-14T16:54:09.193Z,32.30
2017-07-14T16:56:35.592Z,31.80
2017-07-14T16:59:02.013Z,31.30
2017-07-14T17:01:28.413Z,31.60
2017-07-14T17:03:54.831Z,31.60
2017-07-14T17:06:21.227Z,31.50
2017-07-14T17:08:47.628Z,32.40
2017-07-14T17:11:14.771Z,30.40
2017-07-14T17:13:41.904Z,30.00
2017-07-14T17:16:08.310Z,30.00
2017-07-14T17:18:34.815Z,30.00
2017-07-14T17:21:01.216Z,29.90
2017-07-14T17:23:28.345Z,31.10
2017-07-14T17:25:54.726Z,31.00
2017-07-14T17:28:21.161Z,31.80
2017-07-14T17:30:47.569Z,31.30
2017-07-14T17:33:14.715Z,32.00
2017-07-14T17:35:41.891Z,31.80
2017-07-14T17:38:08.276Z,31.80
2017-07-14T17:40:34.680Z,32.60
2017-07-14T17:43:01.053Z,32.30
2017-07-14T17:45:27.533Z,32.60
2017-07-14T17:47:53.952Z,32.70
2017-07-14T17:50:20.348Z,32.90
2017-07-14T17:52:46.784Z,32.90
2017-07-14T17:55:13.224Z,33.20
2017-07-14T17:57:40.357Z,33.90
2017-07-14T18:00:07.545Z,33.40
2017-07-14T18:02:33.960Z,33.30
2017-07-14T18:05:01.180Z,34.60
2017-07-14T18:07:27.569Z,34.50
2017-07-14T18:09:53.978Z,34.40
2017-07-14T18:12:21.141Z,34.50
2017-07-14T18:14:48.293Z,34.70
2017-07-14T18:17:15.453Z,34.90
2017-07-14T18:19:41.836Z,34.90
2017-07-14T18:22:08.272Z,34.80
2017-07-14T18:24:34.813Z,34.80
2017-07-14T18:27:01.212Z,34.90
2017-07-14T18:29:27.621Z,35.10
2017-07-14T18:31:54.025Z,35.10
2017-07-14T18:34:21.211Z,36.20
2017-07-14T18:36:47.650Z,36.10
2017-07-14T18:39:14.065Z,36.20
2017-07-14T18:41:40.461Z,36.30
2017-07-14T18:44:06.891Z,36.60
2017-07-14T18:46:33.319Z,36.90
2017-07-14T18:48:59.706Z,37.10
2017-07-14T18:51:26.125Z,37.50
2017-07-14T18:53:52.553Z,37.40
2017-07-14T18:56:19.700Z,37.70
2017-07-14T18:58:46.513Z,37.60
2017-07-14T19:01:12.932Z,38.20
2017-07-14T19:03:39.347Z,38.20
2017-07-14T19:06:05.745Z,38.80
2017-07-14T19:08:32.124Z,39.00
2017-07-14T19:10:58.645Z,38.70
2017-07-14T19:13:25.044Z,38.60
2017-07-14T19:15:51.482Z,38.50
2017-07-14T19:18:17.934Z,38.40
2017-07-14T19:20:44.336Z,38.50
2017-07-14T19:23:11.473Z,39.00
2017-07-14T19:25:38.672Z,39.00
2017-07-14T19:28:05.108Z,39.00
2017-07-14T19:30:31.524Z,39.10
2017-07-14T19:32:57.943Z,39.60
2017-07-14T19:35:24.367Z,39.40
2017-07-14T19:37:51.521Z,39.90
2017-07-14T19:40:18.762Z,39.80
2017-07-14T19:42:45.909Z,40.20
2017-07-14T19:45:12.321Z,40.20
2017-07-14T19:47:38.737Z,40.00
2017-07-14T19:50:05.167Z,40.10
2017-07-14T19:52:31.582Z,39.90
2017-07-14T19:54:58.011Z,40.00
2017-07-14T19:57:24.450Z,40.30
2017-07-14T19:59:50.852Z,40.60
2017-07-14T20:02:17.987Z,42.00
2017-07-14T20:04:45.136Z,42.30
2017-07-14T20:07:11.559Z,42.30
2017-07-14T20:09:37.976Z,42.50
2017-07-14T20:12:04.412Z,42.20
2017-07-14T20:14:30.847Z,42.70
2017-07-14T20:16:57.267Z,42.70
2017-07-14T20:19:23.652Z,42.20
2017-07-14T20:21:50.805Z,42.20
2017-07-14T20:24:17.951Z,42.10
2017-07-14T20:26:45.078Z,42.50
2017-07-14T20:29:11.579Z,42.50
2017-07-14T20:31:37.964Z,42.30
2017-07-14T20:34:05.113Z,42.30
2017-07-14T20:36:32.280Z,42.50
2017-07-14T20:38:58.705Z,42.50
2017-07-14T20:41:25.105Z,42.30
2017-07-14T20:43:51.528Z,42.20
2017-07-14T20:46:17.921Z,41.40
2017-07-14T20:48:44.359Z,41.50
2017-07-14T20:51:10.808Z,41.70
2017-07-14T20:53:37.213Z,42.00
2017-07-14T20:56:03.624Z,42.60
2017-07-14T20:58:31.594Z,43.10
2017-07-14T21:00:58.730Z,42.90
2017-07-14T21:03:25.251Z,42.90
2017-07-14T21:05:51.654Z,42.80
2017-07-14T21:08:18.118Z,43.30
2017-07-14T21:10:44.520Z,43.60
2017-07-14T21:13:10.917Z,43.90
2017-07-14T21:15:38.050Z,44.10
2017-07-14T21:18:05.216Z,44.10
2017-07-14T21:20:31.649Z,44.20
2017-07-14T21:22:58.035Z,44.20
2017-07-14T21:25:24.441Z,44.70
2017-07-14T21:27:50.855Z,45.00
2017-07-14T21:30:17.325Z,45.50
2017-07-14T21:32:43.731Z,46.10
2017-07-14T21:35:10.143Z,46.50
2017-07-14T21:37:36.537Z,46.80
2017-07-14T21:40:02.953Z,47.30
2017-07-14T21:42:29.359Z,48.00
2017-07-14T21:44:55.760Z,48.40
2017-07-14T21:47:22.900Z,48.30
2017-07-14T21:49:49.732Z,48.30
2017-07-14T21:52:16.117Z,48.90
2017-07-14T21:54:42.529Z,49.20
2017-07-14T21:57:09.709Z,50.10
2017-07-14T21:59:36.115Z,50.10
2017-07-14T22:02:03.308Z,52.30
2017-07-14T22:04:29.744Z,52.30
2017-07-14T22:06:56.144Z,54.30
2017-07-14T22:09:22.616Z,56.10
2017-07-14T22:11:49.039Z,56.70
2017-07-14T22:14:15.445Z,57.30
2017-07-14T22:16:41.856Z,57.20
2017-07-14T22:19:09.008Z,56.80
2017-07-14T22:21:36.148Z,56.90
2017-07-14T22:24:02.551Z,56.80
2017-07-14T22:26:28.954Z,56.80
2017-07-14T22:28:55.378Z,56.60
2017-07-14T22:31:21.780Z,56.40
2017-07-14T22:33:49.246Z,56.30
2017-07-14T22:36:16.385Z,56.70
2017-07-14T22:38:42.780Z,56.70
2017-07-14T22:41:09.154Z,56.70
2017-07-14T22:43:36.311Z,56.20
2017-07-14T22:46:03.454Z,56.30
2017-07-14T22:48:30.598Z,56.70
2017-07-14T22:50:56.967Z,56.70
2017-07-14T22:53:23.397Z,57.20
2017-07-14T22:55:49.799Z,57.80
2017-07-14T22:58:16.915Z,59.20
2017-07-14T23:00:43.340Z,58.70
2017-07-14T23:03:09.780Z,60.20
2017-07-14T23:05:36.222Z,59.50
2017-07-14T23:08:02.636Z,59.80
2017-07-14T23:10:29.070Z,60.00
2017-07-14T23:12:55.573Z,60.30
2017-07-14T23:15:21.983Z,60.20
2017-07-14T23:17:49.158Z,60.80
2017-07-14T23:20:15.588Z,60.80
2017-07-14T23:22:41.995Z,60.20
2017-07-14T23:25:09.185Z,60.40
2017-07-14T23:27:35.599Z,60.40
2017-07-14T23:30:02.026Z,60.90
2017-07-14T23:32:28.431Z,61.00
2017-07-14T23:34:55.233Z,61.00
2017-07-14T23:37:22.494Z,61.00
2017-07-14T23:39:48.890Z,60.80
2017-07-14T23:42:15.297Z,60.30
2017-07-14T23:44:41.709Z,60.40
2017-07-14T23:47:08.105Z,60.70
2017-07-14T23:49:34.488Z,61.00
2017-07-14T23:52:00.879Z,60.70
2017-07-14T23:54:27.298Z,61.10
2017-07-14T23:56:53.719Z,61.20
2017-07-14T23:59:20.126Z,62.20
